sensor_id;sensor_type;location;lat;lon;timestamp;P1;durP1;ratioP1;P2;durP2;ratioP2
57241;SDS011;43095;53.302;5.786;2023-08-06T09:22:34;8.00;;;2.85;;
57241;SDS011;43095;53.302;5.786;2023-08-06T09:25:02;5.63;;;2.75;;
57241;SDS011;43095;53.302;5.786;2023-08-06T09:27:36;4.40;;;3.05;;
57241;SDS011;43095;53.302;5.786;2023-08-06T09:30:04;4.18;;;2.40;;
57241;SDS011;43095;53.302;5.786;2023-08-06T09:32:47;9.75;;;3.00;;
57241;SDS011;43095;53.302;5.786;2023-08-06T09:35:15;3.53;;;2.55;;
57241;SDS011;43095;53.302;5.786;2023-08-06T09:37:43;5.18;;;2.90;;
57241;SDS011;43095;53.302;5.786;2023-08-06T09:40:27;6.03;;;2.85;;
57241;SDS011;43095;53.302;5.786;2023-08-06T09:42:55;6.68;;;2.78;;
57241;SDS011;43095;53.302;5.786;2023-08-06T09:45:23;4.68;;;2.50;;
57241;SDS011;43095;53.302;5.786;2023-08-06T09:47:55;4.68;;;3.20;;
57241;SDS011;43095;53.302;5.786;2023-08-06T09:50:22;7.18;;;3.22;;
57241;SDS011;43095;53.302;5.786;2023-08-06T09:52:50;6.88;;;3.42;;
57241;SDS011;43095;53.302;5.786;2023-08-06T09:55:18;7.93;;;3.25;;
57241;SDS011;43095;53.302;5.786;2023-08-06T09:57:48;4.25;;;2.90;;
57241;SDS011;43095;53.302;5.786;2023-08-06T10:00:16;5.57;;;3.40;;
57241;SDS011;43095;53.302;5.786;2023-08-06T10:02:46;7.00;;;3.03;;
57241;SDS011;43095;53.302;5.786;2023-08-06T10:05:15;6.60;;;3.47;;
57241;SDS011;43095;53.302;5.786;2023-08-06T10:07:43;5.35;;;3.47;;
57241;SDS011;43095;53.302;5.786;2023-08-06T10:10:11;5.00;;;3.20;;
57241;SDS011;43095;53.302;5.786;2023-08-06T10:12:48;4.63;;;3.53;;
57241;SDS011;43095;53.302;5.786;2023-08-06T10:15:17;6.10;;;3.45;;
57241;SDS011;43095;53.302;5.786;2023-08-06T10:17:50;5.10;;;3.92;;
57241;SDS011;43095;53.302;5.786;2023-08-06T10:20:18;5.00;;;3.33;;
57241;SDS011;43095;53.302;5.786;2023-08-06T10:22:59;5.05;;;3.50;;
57241;SDS011;43095;53.302;5.786;2023-08-06T10:25:53;5.88;;;3.78;;
57241;SDS011;43095;53.302;5.786;2023-08-06T10:28:20;8.13;;;3.95;;
57241;SDS011;43095;53.302;5.786;2023-08-06T10:30:47;4.50;;;2.88;;
57241;SDS011;43095;53.302;5.786;2023-08-06T10:33:14;5.32;;;3.55;;
57241;SDS011;43095;53.302;5.786;2023-08-06T10:35:44;5.63;;;3.17;;
57241;SDS011;43095;53.302;5.786;2023-08-06T10:38:17;4.85;;;3.25;;
57241;SDS011;43095;53.302;5.786;2023-08-06T10:43:26;3.65;;;3.33;;
57241;SDS011;43095;53.302;5.786;2023-08-06T10:45:54;6.18;;;3.90;;
57241;SDS011;43095;53.302;5.786;2023-08-06T10:48:34;5.95;;;3.95;;
57241;SDS011;43095;53.302;5.786;2023-08-06T10:51:12;4.90;;;4.25;;
57241;SDS011;43095;53.302;5.786;2023-08-06T10:53:46;6.53;;;4.65;;
57241;SDS011;43095;53.302;5.786;2023-08-06T10:56:20;5.70;;;3.88;;
57241;SDS011;43095;53.302;5.786;2023-08-06T10:58:54;8.55;;;5.05;;
57241;SDS011;43095;53.302;5.786;2023-08-06T11:01:28;14.68;;;4.85;;
57241;SDS011;43095;53.302;5.786;2023-08-06T11:04:00;6.40;;;4.35;;
57241;SDS011;43095;53.302;5.786;2023-08-06T11:08:56;4.90;;;4.00;;
57241;SDS011;43095;53.302;5.786;2023-08-06T11:11:23;7.72;;;4.45;;
57241;SDS011;43095;53.302;5.786;2023-08-06T11:13:50;9.40;;;4.32;;
57241;SDS011;43095;53.302;5.786;2023-08-06T11:16:19;5.47;;;4.72;;
57241;SDS011;43095;53.302;5.786;2023-08-06T11:18:47;6.78;;;3.90;;
57241;SDS011;43095;53.302;5.786;2023-08-06T11:21:18;8.40;;;5.07;;
57241;SDS011;43095;53.302;5.786;2023-08-06T11:23:46;9.02;;;4.90;;
57241;SDS011;43095;53.302;5.786;2023-08-06T11:26:19;4.60;;;4.05;;
57241;SDS011;43095;53.302;5.786;2023-08-06T11:28:50;6.18;;;3.53;;
57241;SDS011;43095;53.302;5.786;2023-08-06T11:31:21;5.50;;;4.03;;
57241;SDS011;43095;53.302;5.786;2023-08-06T11:33:52;4.53;;;3.40;;
57241;SDS011;43095;53.302;5.786;2023-08-06T11:36:29;4.38;;;3.28;;
57241;SDS011;43095;53.302;5.786;2023-08-06T11:38:59;6.65;;;3.65;;
57241;SDS011;43095;53.302;5.786;2023-08-06T11:41:30;6.18;;;3.90;;
57241;SDS011;43095;53.302;5.786;2023-08-06T11:44:00;5.28;;;4.00;;
57241;SDS011;43095;53.302;5.786;2023-08-06T11:46:28;6.70;;;4.30;;
57241;SDS011;43095;53.302;5.786;2023-08-06T11:48:55;5.47;;;4.40;;
57241;SDS011;43095;53.302;5.786;2023-08-06T11:51:26;8.13;;;5.03;;
57241;SDS011;43095;53.302;5.786;2023-08-06T11:53:57;8.25;;;4.45;;
57241;SDS011;43095;53.302;5.786;2023-08-06T11:56:25;4.78;;;4.30;;
57241;SDS011;43095;53.302;5.786;2023-08-06T11:58:54;4.97;;;3.97;;
57241;SDS011;43095;53.302;5.786;2023-08-06T12:01:21;7.45;;;4.47;;
57241;SDS011;43095;53.302;5.786;2023-08-06T12:03:48;4.85;;;3.70;;
57241;SDS011;43095;53.302;5.786;2023-08-06T12:06:15;5.32;;;3.83;;
57241;SDS011;43095;53.302;5.786;2023-08-06T12:08:42;4.57;;;3.80;;
57241;SDS011;43095;53.302;5.786;2023-08-06T12:11:09;5.32;;;4.00;;
57241;SDS011;43095;53.302;5.786;2023-08-06T12:13:36;5.03;;;4.00;;
57241;SDS011;43095;53.302;5.786;2023-08-06T12:16:03;7.00;;;4.35;;
57241;SDS011;43095;53.302;5.786;2023-08-06T12:18:30;7.22;;;4.10;;
57241;SDS011;43095;53.302;5.786;2023-08-06T12:20:57;7.10;;;3.78;;
57241;SDS011;43095;53.302;5.786;2023-08-06T12:23:25;6.10;;;3.47;;
57241;SDS011;43095;53.302;5.786;2023-08-06T12:25:51;5.00;;;3.85;;
57241;SDS011;43095;53.302;5.786;2023-08-06T12:28:19;7.85;;;4.25;;
57241;SDS011;43095;53.302;5.786;2023-08-06T12:30:49;4.85;;;3.70;;
57241;SDS011;43095;53.302;5.786;2023-08-06T12:33:17;6.63;;;3.70;;
57241;SDS011;43095;53.302;5.786;2023-08-06T12:35:46;5.15;;;3.75;;
57241;SDS011;43095;53.302;5.786;2023-08-06T12:38:13;8.05;;;3.55;;
57241;SDS011;43095;53.302;5.786;2023-08-06T12:40:42;4.43;;;3.20;;
57241;SDS011;43095;53.302;5.786;2023-08-06T12:43:09;3.85;;;3.15;;
57241;SDS011;43095;53.302;5.786;2023-08-06T12:45:36;4.32;;;3.08;;
57241;SDS011;43095;53.302;5.786;2023-08-06T12:48:03;4.10;;;3.40;;
57241;SDS011;43095;53.302;5.786;2023-08-06T12:50:30;7.07;;;3.33;;
57241;SDS011;43095;53.302;5.786;2023-08-06T12:52:59;5.07;;;3.65;;
57241;SDS011;43095;53.302;5.786;2023-08-06T12:55:27;6.57;;;3.47;;
57241;SDS011;43095;53.302;5.786;2023-08-06T12:57:58;4.93;;;2.88;;
57241;SDS011;43095;53.302;5.786;2023-08-06T13:00:26;5.50;;;3.17;;
57241;SDS011;43095;53.302;5.786;2023-08-06T13:02:53;4.97;;;3.15;;
57241;SDS011;43095;53.302;5.786;2023-08-06T13:05:20;5.28;;;3.03;;
57241;SDS011;43095;53.302;5.786;2023-08-06T13:07:47;6.95;;;3.25;;
57241;SDS011;43095;53.302;5.786;2023-08-06T13:10:14;6.10;;;2.90;;
57241;SDS011;43095;53.302;5.786;2023-08-06T13:12:43;5.95;;;3.00;;
57241;SDS011;43095;53.302;5.786;2023-08-06T13:15:10;4.47;;;2.78;;
57241;SDS011;43095;53.302;5.786;2023-08-06T13:17:37;3.85;;;2.80;;
57241;SDS011;43095;53.302;5.786;2023-08-06T13:20:04;6.93;;;3.20;;
57241;SDS011;43095;53.302;5.786;2023-08-06T13:22:32;4.70;;;3.03;;
57241;SDS011;43095;53.302;5.786;2023-08-06T13:24:59;3.55;;;2.33;;
57241;SDS011;43095;53.302;5.786;2023-08-06T13:27:26;5.70;;;2.72;;
57241;SDS011;43095;53.302;5.786;2023-08-06T13:29:53;3.40;;;2.70;;
57241;SDS011;43095;53.302;5.786;2023-08-06T13:32:20;3.65;;;2.63;;
57241;SDS011;43095;53.302;5.786;2023-08-06T13:34:47;3.17;;;2.58;;
57241;SDS011;43095;53.302;5.786;2023-08-06T13:37:14;3.08;;;2.40;;
57241;SDS011;43095;53.302;5.786;2023-08-06T13:39:40;3.78;;;2.55;;
57241;SDS011;43095;53.302;5.786;2023-08-06T13:42:07;5.72;;;2.60;;
57241;SDS011;43095;53.302;5.786;2023-08-06T13:44:38;2.75;;;2.35;;
57241;SDS011;43095;53.302;5.786;2023-08-06T13:47:05;4.32;;;2.38;;
57241;SDS011;43095;53.302;5.786;2023-08-06T13:49:31;3.63;;;2.72;;
57241;SDS011;43095;53.302;5.786;2023-08-06T13:51:58;4.30;;;2.50;;
57241;SDS011;43095;53.302;5.786;2023-08-06T13:54:45;4.38;;;2.20;;
57241;SDS011;43095;53.302;5.786;2023-08-06T13:57:12;3.75;;;2.60;;
57241;SDS011;43095;53.302;5.786;2023-08-06T13:59:39;3.60;;;2.50;;
57241;SDS011;43095;53.302;5.786;2023-08-06T14:02:05;4.97;;;2.63;;
57241;SDS011;43095;53.302;5.786;2023-08-06T14:04:32;10.30;;;3.28;;
57241;SDS011;43095;53.302;5.786;2023-08-06T14:06:59;5.00;;;2.53;;
57241;SDS011;43095;53.302;5.786;2023-08-06T14:09:29;6.13;;;3.05;;
57241;SDS011;43095;53.302;5.786;2023-08-06T14:11:57;3.53;;;2.40;;
57241;SDS011;43095;53.302;5.786;2023-08-06T14:14:23;5.75;;;2.42;;
57241;SDS011;43095;53.302;5.786;2023-08-06T14:16:53;4.82;;;2.80;;
57241;SDS011;43095;53.302;5.786;2023-08-06T14:19:21;8.75;;;3.10;;
57241;SDS011;43095;53.302;5.786;2023-08-06T14:21:49;4.20;;;2.20;;
57241;SDS011;43095;53.302;5.786;2023-08-06T14:24:17;6.90;;;3.05;;
57241;SDS011;43095;53.302;5.786;2023-08-06T14:26:47;9.30;;;3.10;;
57241;SDS011;43095;53.302;5.786;2023-08-06T14:29:13;8.02;;;2.88;;
57241;SDS011;43095;53.302;5.786;2023-08-06T14:31:40;8.23;;;3.05;;
57241;SDS011;43095;53.302;5.786;2023-08-06T14:34:08;8.85;;;2.78;;
57241;SDS011;43095;53.302;5.786;2023-08-06T14:36:38;6.40;;;2.95;;
57241;SDS011;43095;53.302;5.786;2023-08-06T14:39:07;7.70;;;3.55;;
57241;SDS011;43095;53.302;5.786;2023-08-06T14:41:34;11.10;;;3.13;;
57241;SDS011;43095;53.302;5.786;2023-08-06T14:44:01;9.23;;;3.30;;
57241;SDS011;43095;53.302;5.786;2023-08-06T14:46:28;8.32;;;3.60;;
57241;SDS011;43095;53.302;5.786;2023-08-06T14:48:54;8.30;;;3.60;;
57241;SDS011;43095;53.302;5.786;2023-08-06T14:51:21;6.60;;;3.40;;
57241;SDS011;43095;53.302;5.786;2023-08-06T14:53:49;5.50;;;3.15;;
57241;SDS011;43095;53.302;5.786;2023-08-06T14:56:18;5.18;;;3.22;;
57241;SDS011;43095;53.302;5.786;2023-08-06T14:58:45;6.00;;;3.63;;
57241;SDS011;43095;53.302;5.786;2023-08-06T15:01:12;5.72;;;3.20;;
57241;SDS011;43095;53.302;5.786;2023-08-06T15:03:39;5.22;;;3.30;;
57241;SDS011;43095;53.302;5.786;2023-08-06T15:06:06;4.35;;;2.90;;
57241;SDS011;43095;53.302;5.786;2023-08-06T15:08:34;4.85;;;2.97;;
57241;SDS011;43095;53.302;5.786;2023-08-06T15:11:01;4.07;;;2.10;;
57241;SDS011;43095;53.302;5.786;2023-08-06T15:13:29;3.75;;;2.17;;
57241;SDS011;43095;53.302;5.786;2023-08-06T15:15:57;3.20;;;1.88;;
57241;SDS011;43095;53.302;5.786;2023-08-06T15:18:24;3.78;;;2.15;;
57241;SDS011;43095;53.302;5.786;2023-08-06T15:20:51;4.70;;;1.90;;
57241;SDS011;43095;53.302;5.786;2023-08-06T15:23:22;4.97;;;2.35;;
57241;SDS011;43095;53.302;5.786;2023-08-06T15:25:50;6.05;;;2.22;;
57241;SDS011;43095;53.302;5.786;2023-08-06T15:28:17;5.32;;;2.10;;
57241;SDS011;43095;53.302;5.786;2023-08-06T15:30:50;4.90;;;1.88;;
57241;SDS011;43095;53.302;5.786;2023-08-06T15:33:18;3.38;;;1.58;;
57241;SDS011;43095;53.302;5.786;2023-08-06T15:35:45;8.23;;;2.15;;
57241;SDS011;43095;53.302;5.786;2023-08-06T15:38:12;4.97;;;1.92;;
57241;SDS011;43095;53.302;5.786;2023-08-06T15:40:41;7.00;;;1.98;;
57241;SDS011;43095;53.302;5.786;2023-08-06T15:43:12;5.18;;;1.92;;
57241;SDS011;43095;53.302;5.786;2023-08-06T15:45:39;3.67;;;2.25;;
57241;SDS011;43095;53.302;5.786;2023-08-06T15:48:06;8.45;;;2.25;;
57241;SDS011;43095;53.302;5.786;2023-08-06T15:50:38;5.05;;;1.85;;
57241;SDS011;43095;53.302;5.786;2023-08-06T15:53:05;5.07;;;2.40;;
57241;SDS011;43095;53.302;5.786;2023-08-06T15:55:32;7.07;;;2.60;;
57241;SDS011;43095;53.302;5.786;2023-08-06T15:58:04;5.60;;;2.85;;
57241;SDS011;43095;53.302;5.786;2023-08-06T16:00:32;5.90;;;2.95;;
57241;SDS011;43095;53.302;5.786;2023-08-06T16:02:59;4.15;;;2.40;;
57241;SDS011;43095;53.302;5.786;2023-08-06T16:05:26;5.97;;;2.22;;
57241;SDS011;43095;53.302;5.786;2023-08-06T16:07:53;4.75;;;2.10;;
57241;SDS011;43095;53.302;5.786;2023-08-06T16:10:20;3.53;;;2.10;;
57241;SDS011;43095;53.302;5.786;2023-08-06T16:12:47;6.57;;;2.40;;
57241;SDS011;43095;53.302;5.786;2023-08-06T16:15:14;5.53;;;2.03;;
57241;SDS011;43095;53.302;5.786;2023-08-06T16:17:45;4.75;;;2.03;;
57241;SDS011;43095;53.302;5.786;2023-08-06T16:20:13;4.85;;;2.03;;
57241;SDS011;43095;53.302;5.786;2023-08-06T16:22:42;4.85;;;2.15;;
57241;SDS011;43095;53.302;5.786;2023-08-06T16:25:09;4.63;;;2.47;;
57241;SDS011;43095;53.302;5.786;2023-08-06T16:27:39;7.00;;;2.40;;
57241;SDS011;43095;53.302;5.786;2023-08-06T16:30:06;6.10;;;2.55;;
57241;SDS011;43095;53.302;5.786;2023-08-06T16:32:34;4.03;;;2.20;;
57241;SDS011;43095;53.302;5.786;2023-08-06T16:35:02;5.10;;;2.47;;
57241;SDS011;43095;53.302;5.786;2023-08-06T16:37:30;4.68;;;2.00;;
57241;SDS011;43095;53.302;5.786;2023-08-06T16:39:57;5.40;;;1.92;;
57241;SDS011;43095;53.302;5.786;2023-08-06T16:42:24;3.47;;;2.10;;
57241;SDS011;43095;53.302;5.786;2023-08-06T16:44:51;3.97;;;1.80;;
57241;SDS011;43095;53.302;5.786;2023-08-06T16:47:18;10.05;;;3.00;;
57241;SDS011;43095;53.302;5.786;2023-08-06T16:49:45;8.50;;;2.35;;
57241;SDS011;43095;53.302;5.786;2023-08-06T16:52:12;4.80;;;1.85;;
57241;SDS011;43095;53.302;5.786;2023-08-06T16:54:39;5.60;;;2.38;;
57241;SDS011;43095;53.302;5.786;2023-08-06T16:57:06;5.25;;;1.85;;
57241;SDS011;43095;53.302;5.786;2023-08-06T16:59:33;3.35;;;1.80;;
57241;SDS011;43095;53.302;5.786;2023-08-06T17:01:59;8.07;;;2.00;;
57241;SDS011;43095;53.302;5.786;2023-08-06T17:04:26;6.13;;;2.03;;
57241;SDS011;43095;53.302;5.786;2023-08-06T17:06:54;5.35;;;2.00;;
57241;SDS011;43095;53.302;5.786;2023-08-06T17:09:21;6.82;;;1.95;;
57241;SDS011;43095;53.302;5.786;2023-08-06T17:11:50;5.40;;;2.28;;
57241;SDS011;43095;53.302;5.786;2023-08-06T17:14:17;4.38;;;1.70;;
57241;SDS011;43095;53.302;5.786;2023-08-06T17:16:45;5.47;;;2.03;;
57241;SDS011;43095;53.302;5.786;2023-08-06T17:19:12;3.60;;;1.60;;
57241;SDS011;43095;53.302;5.786;2023-08-06T17:21:39;4.63;;;1.92;;
57241;SDS011;43095;53.302;5.786;2023-08-06T17:24:06;7.35;;;1.95;;
57241;SDS011;43095;53.302;5.786;2023-08-06T17:26:33;5.65;;;1.80;;
57241;SDS011;43095;53.302;5.786;2023-08-06T17:29:00;5.30;;;2.15;;
57241;SDS011;43095;53.302;5.786;2023-08-06T17:31:27;4.72;;;2.00;;
57241;SDS011;43095;53.302;5.786;2023-08-06T17:33:54;3.85;;;1.85;;
57241;SDS011;43095;53.302;5.786;2023-08-06T17:36:21;3.42;;;1.70;;
57241;SDS011;43095;53.302;5.786;2023-08-06T17:38:48;4.50;;;1.90;;
57241;SDS011;43095;53.302;5.786;2023-08-06T17:41:15;6.65;;;1.90;;
57241;SDS011;43095;53.302;5.786;2023-08-06T17:43:42;7.22;;;2.20;;
57241;SDS011;43095;53.302;5.786;2023-08-06T17:46:09;7.25;;;2.42;;
57241;SDS011;43095;53.302;5.786;2023-08-06T17:48:36;3.97;;;2.00;;
57241;SDS011;43095;53.302;5.786;2023-08-06T17:51:03;6.85;;;2.17;;
57241;SDS011;43095;53.302;5.786;2023-08-06T17:53:30;6.57;;;2.20;;
57241;SDS011;43095;53.302;5.786;2023-08-06T17:55:57;4.93;;;1.92;;
57241;SDS011;43095;53.302;5.786;2023-08-06T17:58:27;6.55;;;1.92;;
57241;SDS011;43095;53.302;5.786;2023-08-06T18:00:54;6.22;;;2.03;;
57241;SDS011;43095;53.302;5.786;2023-08-06T18:03:22;6.72;;;2.67;;
57241;SDS011;43095;53.302;5.786;2023-08-06T18:05:56;5.07;;;1.90;;
57241;SDS011;43095;53.302;5.786;2023-08-06T18:08:23;7.53;;;2.38;;
57241;SDS011;43095;53.302;5.786;2023-08-06T18:10:51;4.93;;;1.80;;
57241;SDS011;43095;53.302;5.786;2023-08-06T18:13:18;4.20;;;2.30;;
57241;SDS011;43095;53.302;5.786;2023-08-06T18:15:45;3.80;;;2.20;;
57241;SDS011;43095;53.302;5.786;2023-08-06T18:18:14;4.55;;;2.88;;
57241;SDS011;43095;53.302;5.786;2023-08-06T18:20:41;5.53;;;2.53;;
57241;SDS011;43095;53.302;5.786;2023-08-06T18:23:08;3.88;;;1.85;;
57241;SDS011;43095;53.302;5.786;2023-08-06T18:25:34;4.75;;;2.15;;
57241;SDS011;43095;53.302;5.786;2023-08-06T18:28:02;3.15;;;2.20;;
57241;SDS011;43095;53.302;5.786;2023-08-06T18:30:29;4.00;;;2.55;;
57241;SDS011;43095;53.302;5.786;2023-08-06T18:32:56;3.65;;;2.17;;
57241;SDS011;43095;53.302;5.786;2023-08-06T18:35:24;3.85;;;2.55;;
57241;SDS011;43095;53.302;5.786;2023-08-06T18:37:51;4.85;;;2.80;;
57241;SDS011;43095;53.302;5.786;2023-08-06T18:40:20;3.28;;;2.50;;
57241;SDS011;43095;53.302;5.786;2023-08-06T18:42:47;3.63;;;2.50;;
57241;SDS011;43095;53.302;5.786;2023-08-06T18:45:14;3.42;;;2.65;;
57241;SDS011;43095;53.302;5.786;2023-08-06T18:47:41;4.85;;;2.35;;
57241;SDS011;43095;53.302;5.786;2023-08-06T18:50:09;4.10;;;2.67;;
57241;SDS011;43095;53.302;5.786;2023-08-06T18:52:39;4.53;;;3.38;;
57241;SDS011;43095;53.302;5.786;2023-08-06T18:55:06;5.00;;;3.42;;
57241;SDS011;43095;53.302;5.786;2023-08-06T18:57:33;3.33;;;2.38;;
57241;SDS011;43095;53.302;5.786;2023-08-06T19:00:00;3.30;;;2.72;;
57241;SDS011;43095;53.302;5.786;2023-08-06T19:02:27;4.70;;;2.65;;
57241;SDS011;43095;53.302;5.786;2023-08-06T19:04:54;4.45;;;2.90;;
57241;SDS011;43095;53.302;5.786;2023-08-06T19:07:21;3.95;;;3.20;;
57241;SDS011;43095;53.302;5.786;2023-08-06T19:09:47;4.22;;;3.03;;
57241;SDS011;43095;53.302;5.786;2023-08-06T19:12:14;6.25;;;4.28;;
57241;SDS011;43095;53.302;5.786;2023-08-06T19:14:41;4.68;;;3.45;;
57241;SDS011;43095;53.302;5.786;2023-08-06T19:17:11;3.67;;;3.03;;
57241;SDS011;43095;53.302;5.786;2023-08-06T19:19:38;4.25;;;3.22;;
57241;SDS011;43095;53.302;5.786;2023-08-06T19:22:13;4.05;;;3.22;;
57241;SDS011;43095;53.302;5.786;2023-08-06T19:24:39;7.72;;;3.42;;
57241;SDS011;43095;53.302;5.786;2023-08-06T19:27:07;5.40;;;3.50;;
57241;SDS011;43095;53.302;5.786;2023-08-06T19:29:37;7.18;;;3.40;;
57241;SDS011;43095;53.302;5.786;2023-08-06T19:32:04;4.13;;;3.03;;
57241;SDS011;43095;53.302;5.786;2023-08-06T19:34:33;5.82;;;3.25;;
57241;SDS011;43095;53.302;5.786;2023-08-06T19:37:01;7.18;;;4.15;;
57241;SDS011;43095;53.302;5.786;2023-08-06T19:39:28;6.47;;;3.78;;
57241;SDS011;43095;53.302;5.786;2023-08-06T19:41:55;5.18;;;3.15;;
57241;SDS011;43095;53.302;5.786;2023-08-06T19:44:22;5.10;;;3.97;;
57241;SDS011;43095;53.302;5.786;2023-08-06T19:46:49;7.05;;;3.45;;
57241;SDS011;43095;53.302;5.786;2023-08-06T19:49:19;5.93;;;3.75;;
57241;SDS011;43095;53.302;5.786;2023-08-06T19:51:47;5.38;;;3.90;;
57241;SDS011;43095;53.302;5.786;2023-08-06T19:54:15;5.55;;;3.60;;
57241;SDS011;43095;53.302;5.786;2023-08-06T19:56:42;8.02;;;3.95;;
57241;SDS011;43095;53.302;5.786;2023-08-06T19:59:10;6.78;;;5.22;;
57241;SDS011;43095;53.302;5.786;2023-08-06T20:01:36;8.77;;;5.78;;
57241;SDS011;43095;53.302;5.786;2023-08-06T20:04:03;5.93;;;4.88;;
57241;SDS011;43095;53.302;5.786;2023-08-06T20:06:30;6.80;;;5.55;;
57241;SDS011;43095;53.302;5.786;2023-08-06T20:08:57;7.93;;;4.97;;
57241;SDS011;43095;53.302;5.786;2023-08-06T20:11:24;5.50;;;4.85;;
57241;SDS011;43095;53.302;5.786;2023-08-06T20:13:51;8.43;;;4.43;;
57241;SDS011;43095;53.302;5.786;2023-08-06T20:16:18;6.10;;;4.88;;
57241;SDS011;43095;53.302;5.786;2023-08-06T20:18:45;6.07;;;5.03;;
57241;SDS011;43095;53.302;5.786;2023-08-06T20:21:11;8.30;;;5.25;;
57241;SDS011;43095;53.302;5.786;2023-08-06T20:23:38;9.98;;;5.28;;
57241;SDS011;43095;53.302;5.786;2023-08-06T20:26:05;8.00;;;4.90;;
57241;SDS011;43095;53.302;5.786;2023-08-06T20:28:32;5.78;;;4.22;;
57241;SDS011;43095;53.302;5.786;2023-08-06T20:30:58;7.97;;;4.35;;
57241;SDS011;43095;53.302;5.786;2023-08-06T20:33:25;11.02;;;4.40;;
57241;SDS011;43095;53.302;5.786;2023-08-06T20:35:52;6.43;;;3.80;;
57241;SDS011;43095;53.302;5.786;2023-08-06T20:38:19;8.10;;;3.67;;
57241;SDS011;43095;53.302;5.786;2023-08-06T20:40:48;6.25;;;3.55;;
57241;SDS011;43095;53.302;5.786;2023-08-06T20:43:15;6.07;;;3.22;;
57241;SDS011;43095;53.302;5.786;2023-08-06T20:45:42;8.98;;;3.55;;
57241;SDS011;43095;53.302;5.786;2023-08-06T20:48:08;5.70;;;2.75;;
57241;SDS011;43095;53.302;5.786;2023-08-06T20:50:39;9.30;;;3.30;;
57241;SDS011;43095;53.302;5.786;2023-08-06T20:53:06;6.65;;;3.20;;
57241;SDS011;43095;53.302;5.786;2023-08-06T20:55:33;6.20;;;3.08;;
57241;SDS011;43095;53.302;5.786;2023-08-06T20:57:59;6.28;;;2.83;;
57241;SDS011;43095;53.302;5.786;2023-08-06T21:00:26;4.53;;;2.58;;
57241;SDS011;43095;53.302;5.786;2023-08-06T21:02:53;7.53;;;2.90;;
57241;SDS011;43095;53.302;5.786;2023-08-06T21:05:20;6.75;;;2.40;;
57241;SDS011;43095;53.302;5.786;2023-08-06T21:07:47;7.15;;;2.45;;
57241;SDS011;43095;53.302;5.786;2023-08-06T21:10:13;5.95;;;2.33;;
57241;SDS011;43095;53.302;5.786;2023-08-06T21:12:40;13.65;;;2.35;;
57241;SDS011;43095;53.302;5.786;2023-08-06T21:15:07;3.95;;;1.80;;
57241;SDS011;43095;53.302;5.786;2023-08-06T21:17:34;6.72;;;2.63;;
57241;SDS011;43095;53.302;5.786;2023-08-06T21:20:01;5.70;;;2.45;;
57241;SDS011;43095;53.302;5.786;2023-08-06T21:22:28;5.68;;;2.50;;
57241;SDS011;43095;53.302;5.786;2023-08-06T21:24:55;8.00;;;2.65;;
57241;SDS011;43095;53.302;5.786;2023-08-06T21:27:22;5.85;;;2.30;;
57241;SDS011;43095;53.302;5.786;2023-08-06T21:29:50;6.18;;;3.60;;
57241;SDS011;43095;53.302;5.786;2023-08-06T21:32:16;6.85;;;3.35;;
57241;SDS011;43095;53.302;5.786;2023-08-06T21:34:43;7.10;;;2.78;;
57241;SDS011;43095;53.302;5.786;2023-08-06T21:37:10;5.53;;;2.33;;
57241;SDS011;43095;53.302;5.786;2023-08-06T21:39:37;4.85;;;3.17;;
57241;SDS011;43095;53.302;5.786;2023-08-06T21:42:04;4.80;;;2.20;;
57241;SDS011;43095;53.302;5.786;2023-08-06T21:44:31;8.23;;;2.10;;
57241;SDS011;43095;53.302;5.786;2023-08-06T21:46:57;4.57;;;2.38;;
57241;SDS011;43095;53.302;5.786;2023-08-06T21:49:25;7.07;;;2.35;;
57241;SDS011;43095;53.302;5.786;2023-08-06T21:51:51;4.85;;;2.15;;
57241;SDS011;43095;53.302;5.786;2023-08-06T21:54:19;5.85;;;2.22;;
57241;SDS011;43095;53.302;5.786;2023-08-06T21:56:45;5.10;;;2.20;;
57241;SDS011;43095;53.302;5.786;2023-08-06T21:59:12;4.05;;;1.85;;
57241;SDS011;43095;53.302;5.786;2023-08-06T22:01:39;4.90;;;2.30;;
57241;SDS011;43095;53.302;5.786;2023-08-06T22:04:06;4.55;;;1.73;;
57241;SDS011;43095;53.302;5.786;2023-08-06T22:06:32;6.25;;;1.70;;
57241;SDS011;43095;53.302;5.786;2023-08-06T22:08:59;6.93;;;2.30;;
57241;SDS011;43095;53.302;5.786;2023-08-06T22:11:26;4.25;;;1.98;;
57241;SDS011;43095;53.302;5.786;2023-08-06T22:13:53;5.72;;;1.80;;
57241;SDS011;43095;53.302;5.786;2023-08-06T22:16:19;5.03;;;2.45;;
57241;SDS011;43095;53.302;5.786;2023-08-06T22:18:46;5.70;;;2.30;;
57241;SDS011;43095;53.302;5.786;2023-08-06T22:21:14;5.75;;;2.00;;
57241;SDS011;43095;53.302;5.786;2023-08-06T22:23:41;6.05;;;2.08;;
57241;SDS011;43095;53.302;5.786;2023-08-06T22:26:09;4.93;;;2.25;;
57241;SDS011;43095;53.302;5.786;2023-08-06T22:28:36;2.85;;;2.03;;
57241;SDS011;43095;53.302;5.786;2023-08-06T22:31:13;6.47;;;2.42;;
57241;SDS011;43095;53.302;5.786;2023-08-06T22:33:42;4.53;;;2.13;;
57241;SDS011;43095;53.302;5.786;2023-08-06T22:36:09;4.30;;;2.50;;
57241;SDS011;43095;53.302;5.786;2023-08-06T22:38:36;4.80;;;2.00;;
57241;SDS011;43095;53.302;5.786;2023-08-06T22:41:03;4.05;;;2.00;;
57241;SDS011;43095;53.302;5.786;2023-08-06T22:43:29;4.05;;;2.17;;
57241;SDS011;43095;53.302;5.786;2023-08-06T22:45:56;4.72;;;2.00;;
57241;SDS011;43095;53.302;5.786;2023-08-06T22:48:24;2.58;;;1.98;;
57241;SDS011;43095;53.302;5.786;2023-08-06T22:50:53;7.22;;;2.70;;
57241;SDS011;43095;53.302;5.786;2023-08-06T22:53:19;3.63;;;2.00;;
57241;SDS011;43095;53.302;5.786;2023-08-06T22:55:46;4.93;;;1.92;;
57241;SDS011;43095;53.302;5.786;2023-08-06T22:58:33;4.78;;;1.52;;
57241;SDS011;43095;53.302;5.786;2023-08-06T23:01:00;13.05;;;2.08;;
57241;SDS011;43095;53.302;5.786;2023-08-06T23:03:28;5.13;;;1.80;;
57241;SDS011;43095;53.302;5.786;2023-08-06T23:05:55;5.15;;;1.92;;
57241;SDS011;43095;53.302;5.786;2023-08-06T23:08:22;7.20;;;2.00;;
57241;SDS011;43095;53.302;5.786;2023-08-06T23:10:49;4.63;;;2.33;;
57241;SDS011;43095;53.302;5.786;2023-08-06T23:13:16;3.22;;;1.65;;
57241;SDS011;43095;53.302;5.786;2023-08-06T23:15:42;3.47;;;1.80;;
57241;SDS011;43095;53.302;5.786;2023-08-06T23:18:09;7.25;;;2.00;;
57241;SDS011;43095;53.302;5.786;2023-08-06T23:20:36;5.22;;;1.75;;
57241;SDS011;43095;53.302;5.786;2023-08-06T23:23:04;4.28;;;2.10;;
57241;SDS011;43095;53.302;5.786;2023-08-06T23:25:34;6.82;;;1.67;;
57241;SDS011;43095;53.302;5.786;2023-08-06T23:28:02;3.63;;;1.83;;
57241;SDS011;43095;53.302;5.786;2023-08-06T23:30:33;6.57;;;2.10;;
57241;SDS011;43095;53.302;5.786;2023-08-06T23:32:59;5.88;;;1.90;;
57241;SDS011;43095;53.302;5.786;2023-08-06T23:35:26;8.80;;;2.03;;
57241;SDS011;43095;53.302;5.786;2023-08-06T23:37:53;8.35;;;2.35;;
57241;SDS011;43095;53.302;5.786;2023-08-06T23:40:24;9.30;;;2.35;;
57241;SDS011;43095;53.302;5.786;2023-08-06T23:42:51;9.48;;;2.15;;
57241;SDS011;43095;53.302;5.786;2023-08-06T23:45:18;5.28;;;1.65;;
57241;SDS011;43095;53.302;5.786;2023-08-06T23:47:45;8.05;;;2.13;;
57241;SDS011;43095;53.302;5.786;2023-08-06T23:50:11;10.75;;;1.85;;
57241;SDS011;43095;53.302;5.786;2023-08-06T23:52:40;11.88;;;2.65;;
57241;SDS011;43095;53.302;5.786;2023-08-06T23:55:07;13.93;;;2.80;;
57241;SDS011;43095;53.302;5.786;2023-08-06T23:57:34;20.55;;;4.15;;
